Latest Weather Observations for Dunalley

IDT60801

Issued at 6:31 pm EDT Thursday 2 April 2015 (issued every 30 minutes, with the page automatically refreshed every 10 minutes)

About weather observations | Map of weather stations | Latest weather observations for TAS | Other Formats
Station Details ID: 094254 Name: DUNALLEY (STROUD POINT) Lat: -42.90 Lon: 147.79 Height: 12.43 m
Data from the previous 72 hours. | See also: Recent months at Dunalley
Date/Time
EDT
Temp
°C
App
Temp
°C
Dew
Point
Rel
Hum
%
Delta-T
°C
Wind Press
QNH
hPa
Press
MSL
hPa
Rain
since 9 am
mm
Dir
 
Spd
km/h
Gust
km/h
Spd
kts
Gust
kts
02/06:30pm 12.0 2.4 4.2 59 3.5 SSW 44 54 24 29 1021.8 1021.8 0.2
02/06:00pm 12.2 4.5 7.3 72 2.4 SSW 37 50 20 27 1021.5 1021.5 0.2
02/05:30pm 11.7 2.7 6.6 71 2.4 SSW 43 54 23 29 1021.0 1021.0 0.2
02/05:28pm 11.9 3.4 6.8 71 2.4 SSW 41 52 22 28 1020.9 1020.9 0.2
02/05:00pm 11.7 4.1 7.4 75 2.1 S 37 46 20 25 1021.0 1021.0 0.2
02/04:30pm 11.7 2.7 6.4 70 2.5 SSW 43 56 23 30 1021.0 1021.0 0.2
02/04:00pm 11.8 3.2 8.1 78 1.8 SSW 43 63 23 34 1020.7 1020.7 0.0
02/03:30pm 12.1 5.3 7.6 74 2.2 SSW 33 43 18 23 1020.9 1020.9 0.0
02/03:00pm 12.6 4.3 6.0 64 3.1 S 39 50 21 27 1020.4 1020.4 0.0
02/02:48pm 12.6 4.5 6.9 68 2.7 S 39 59 21 32 1020.4 1020.4 0.0
02/02:30pm 12.8 4.6 6.4 65 3.0 SSW 39 50 21 27 1020.3 1020.3 0.0
02/02:00pm 11.7 2.9 7.4 75 2.1 SSW 43 54 23 29 1020.2 1020.2 0.0
02/01:30pm 12.5 3.4 6.1 65 3.0 SSW 43 57 23 31 1020.1 1020.1 0.0
02/01:00pm 12.6 4.9 6.9 68 2.7 SSW 37 54 20 29 1020.0 1020.0 0.0
02/12:30pm 12.7 2.4 6.7 67 2.9 SSW 50 63 27 34 1019.6 1019.6 0.0
02/12:00pm 13.8 4.2 6.2 60 3.6 SSW 46 57 25 31 1019.2 1019.2 0.0
02/11:30am 12.7 4.6 5.1 60 3.5 S 37 48 20 26 1019.0 1019.0 0.0
02/11:00am 12.5 3.3 6.5 67 2.8 S 44 59 24 32 1018.7 1018.7 0.0
02/10:30am 12.3 4.8 8.0 75 2.1 S 37 46 20 25 1018.5 1018.5 0.0
02/10:00am 12.1 5.5 8.6 79 1.7 S 33 43 18 23 1018.0 1018.0 0.0
02/09:30am 12.0 4.7 8.7 80 1.6 S 37 52 20 28 1017.6 1017.6 0.0
02/09:00am 11.1 3.5 9.0 87 1.0 SSW 39 46 21 25 1016.9 1016.9 2.8
02/08:30am 11.5 4.7 9.2 86 1.2 SSW 35 44 19 24 1016.0 1016.0 2.6
02/08:00am 11.1 5.0 9.7 91 0.7 S 32 37 17 20 1015.5 1015.5 2.6
02/07:30am 11.5 4.4 9.6 88 1.0 S 37 52 20 28 1014.4 1014.4 2.4
02/07:00am 11.4 5.1 9.7 89 0.9 SSW 33 44 18 24 1013.4 1013.4 2.4
02/06:30am 11.8 4.1 10.2 90 0.8 SSW 41 50 22 27 1012.5 1012.5 2.4
02/06:00am 11.9 5.0 10.3 90 0.8 SSW 37 46 20 25 1011.7 1011.7 2.4
02/05:30am 12.6 5.2 10.0 84 1.3 SSW 39 48 21 26 1010.7 1010.7 2.4
02/05:00am 12.4 6.1 11.0 91 0.7 SSW 35 44 19 24 1010.1 1010.1 2.4
02/04:30am 12.8 6.2 11.5 92 0.7 SSW 37 44 20 24 1009.4 1009.4 2.4
02/04:00am 13.4 7.9 12.0 91 0.8 SSW 32 43 17 23 1009.0 1009.0 2.2
02/03:30am 13.8 8.8 12.2 90 0.9 SSW 30 39 16 21 1008.3 1008.3 2.0
02/03:00am 13.6 8.6 12.2 91 0.8 SSW 30 39 16 21 1007.9 1007.9 2.0
02/02:30am 13.9 8.4 12.5 91 0.8 SSW 33 43 18 23 1008.4 1008.4 1.4
02/02:28am 13.9 8.4 12.5 91 0.8 SSW 33 46 18 25 1008.3 1008.3 1.4
02/02:00am 14.3 7.4 12.9 91 0.8 WSW 41 54 22 29 1007.9 1007.9 0.8
02/01:33am 16.8 12.0 11.5 71 2.9 NW 28 61 15 33 1006.3 1006.3 0.0
02/01:31am 18.2 15.1 11.5 65 3.7 NNW 19 57 10 31 1006.1 1006.1 0.0
02/01:30am 19.0 16.9 12.3 65 3.7 N 15 50 8 27 1005.8 1005.8 0.0
02/01:00am 18.5 16.9 12.9 70 3.2 N 13 19 7 10 1005.1 1005.1 0.0
02/12:30am 18.6 15.0 13.0 70 3.2 NNE 24 32 13 17 1004.9 1004.9 0.0
02/12:00am 18.7 15.5 13.1 70 3.2 NNE 22 33 12 18 1005.1 1005.1 0.0
 
Date/Time
EDT
Temp
°C
App
Temp
°C
Dew
Point
Rel
Hum
%
Delta-T
°C
Wind Press
QNH
hPa
Press
MSL
hPa
Rain
since 9 am
mm
Dir
 
Spd
km/h
Gust
km/h
Spd
kts
Gust
kts
01/11:30pm 18.8 15.9 13.0 69 3.3 N 20 30 11 16 1005.1 1005.1 0.0
01/11:00pm 18.7 14.7 13.1 70 3.2 NNE 26 35 14 19 1005.2 1005.2 0.0
01/10:30pm 19.4 15.4 13.1 67 3.6 N 26 37 14 20 1005.5 1005.5 0.0
01/10:00pm 19.7 16.8 12.9 65 3.9 N 20 28 11 15 1006.1 1006.1 0.0
01/09:30pm 20.1 17.3 12.6 62 4.2 N 19 26 10 14 1006.1 1006.1 0.0
01/09:00pm 20.2 18.0 12.2 60 4.5 N 15 19 8 10 1006.6 1006.6 0.0
01/08:30pm 20.7 18.4 11.9 57 4.9 N 15 26 8 14 1007.0 1007.0 0.0
01/08:00pm 20.4 17.3 12.1 59 4.7 N 20 28 11 15 1006.6 1006.6 0.0
01/07:30pm 20.5 16.6 12.2 59 4.6 N 24 35 13 19 1006.3 1006.3 0.0
01/07:00pm 20.7 16.9 12.4 59 4.7 N 24 33 13 18 1006.2 1006.2 0.0
01/06:30pm 21.3 17.4 12.2 56 5.1 N 24 32 13 17 1006.3 1006.3 0.0
01/06:00pm 21.9 18.8 12.2 54 5.5 N 20 32 11 17 1006.3 1006.3 0.0
01/05:30pm 22.0 18.6 12.5 54 5.4 N 22 30 12 16 1006.5 1006.5 0.0
01/05:00pm 21.4 19.1 13.1 59 4.8 N 17 24 9 13 1006.8 1006.8 0.0
01/04:30pm 19.4 17.1 14.0 71 3.1 NE 19 22 10 12 1007.2 1007.2 0.0
01/04:00pm 19.5 17.1 13.7 69 3.3 NE 19 26 10 14 1007.8 1007.8 0.0
01/03:30pm 20.2 18.4 13.2 64 4.0 NNE 15 20 8 11 1008.4 1008.4 0.0
01/03:00pm 20.2 17.2 12.7 62 4.2 NE 20 24 11 13 1008.8 1008.8 0.0
01/02:30pm 20.4 17.4 12.4 60 4.5 NNE 20 26 11 14 1009.2 1009.2 0.0
01/02:00pm 20.2 18.5 12.4 61 4.4 NE 13 17 7 9 1009.6 1009.6 0.0
01/01:30pm 19.0 16.9 12.5 66 3.6 ENE 15 19 8 10 1010.6 1010.6 0.0
01/01:00pm 18.1 14.3 12.5 70 3.1 NE 24 30 13 16 1011.4 1011.4 0.0
01/12:30pm 17.9 14.2 11.5 66 3.5 NE 22 28 12 15 1011.8 1011.8 0.0
01/12:00pm 17.7 14.8 11.0 65 3.6 NE 17 24 9 13 1012.6 1012.6 0.0
01/11:30am 17.3 14.8 11.1 67 3.3 NE 15 22 8 12 1012.8 1012.8 0.0
01/11:00am 17.4 16.8 11.7 69 3.1 NE 6 9 3 5 1013.3 1013.3 0.0
01/10:30am 17.1 16.7 11.2 68 3.2 NE 4 6 2 3 1013.8 1013.8 0.0
01/10:00am 16.7 15.8 10.8 68 3.2 NE 6 7 3 4 1014.2 1014.2 0.0
01/09:30am 16.5 13.1 10.6 68 3.1 ENE 19 28 10 15 1014.0 1014.0 0.0
01/09:00am 15.7 11.9 11.3 75 2.4 NE 22 30 12 16 1013.8 1013.8 0.0
01/08:30am 15.1 10.9 11.1 77 2.1 ENE 24 32 13 17 1014.2 1014.2 0.0
01/08:00am 14.8 10.8 11.8 82 1.6 NE 24 30 13 16 1014.4 1014.4 0.0
01/07:30am 14.4 11.0 11.4 82 1.6 NE 20 26 11 14 1015.0 1015.0 0.0
01/07:00am 14.6 11.3 11.6 82 1.6 NE 20 28 11 15 1015.1 1015.1 0.0
01/06:30am 14.4 11.3 11.6 83 1.5 ENE 19 28 10 15 1015.4 1015.4 0.0
01/06:00am 13.7 13.3 11.2 85 1.3 NE 4 7 2 4 1015.7 1015.7 0.0
01/05:30am 13.5 13.8 11.0 85 1.3 CALM 0 0 0 0 1016.1 1016.1 0.0
01/05:00am 13.4 13.7 10.9 85 1.3 CALM 0 4 0 2 1016.4 1016.4 0.0
01/04:30am 13.5 13.8 11.0 85 1.3 CALM 0 0 0 0 1016.6 1016.6 0.0
01/04:00am 13.7 13.7 11.0 84 1.4 NE 2 4 1 2 1017.1 1017.1 0.0
01/03:30am 13.7 12.9 11.2 85 1.3 NE 6 9 3 5 1017.8 1017.8 0.0
01/03:00am 13.5 12.7 11.6 88 1.0 NE 7 13 4 7 1018.4 1018.4 0.0
01/02:30am 13.2 12.6 11.8 91 0.7 NE 6 9 3 5 1019.0 1019.0 0.0
01/02:00am 13.3 13.3 12.5 95 0.4 NE 4 6 2 3 1019.4 1019.4 0.0
01/01:30am 13.7 14.3 13.1 96 0.3 NE 2 4 1 2 1019.6 1019.6 0.0
01/01:00am 13.7 14.6 12.9 95 0.4 CALM 0 0 0 0 1019.9 1019.9 0.0
01/12:30am 13.3 13.3 12.5 95 0.4 NE 4 6 2 3 1020.3 1020.3 0.0
01/12:00am 13.4 13.1 12.6 95 0.4 NE 6 6 3 3 1020.4 1020.4 0.0
 
Date/Time
EDT
Temp
°C
App
Temp
°C
Dew
Point
Rel
Hum
%
Delta-T
°C
Wind Press
QNH
hPa
Press
MSL
hPa
Rain
since 9 am
mm
Dir
 
Spd
km/h
Gust
km/h
Spd
kts
Gust
kts
31/11:30pm 13.2 12.7 12.1 93 0.6 NE 6 7 3 4 1020.8 1020.8 0.0
31/11:00pm 14.4 13.7 13.1 92 0.7 NE 9 11 5 6 1021.2 1021.2 0.0
31/10:30pm 14.5 13.9 13.5 94 0.6 NE 9 11 5 6 1021.3 1021.3 0.0
31/10:00pm 14.1 14.2 12.7 91 0.8 NE 4 4 2 2 1021.0 1021.0 0.0
31/09:30pm 14.3 14.4 12.7 90 0.9 NE 4 6 2 3 1020.9 1020.9 0.0
31/09:00pm 14.4 15.1 13.3 93 0.6 NE 2 4 1 2 1020.7 1020.7 0.0
31/08:30pm 14.6 14.5 13.3 92 0.7 NE 6 6 3 3 1020.7 1020.7 0.0
31/08:00pm 15.6 15.5 14.0 90 0.9 NE 7 11 4 6 1020.6 1020.6 0.0
31/07:30pm 15.9 15.2 14.3 90 0.9 NE 11 13 6 7 1020.3 1020.3 0.0
31/07:00pm 16.5 16.1 14.2 86 1.3 NE 9 13 5 7 1020.0 1020.0 0.0
31/06:30pm 17.3 14.8 14.2 82 1.8 NE 20 24 11 13 1019.8 1019.8 0.0
31/06:00pm 17.7 15.3 13.8 78 2.2 NE 19 20 10 11 1019.8 1019.8 0.0
31/05:30pm 18.4 16.0 13.7 74 2.7 NE 19 20 10 11 1019.9 1019.9 0.0
31/05:00pm 18.8 16.6 13.2 70 3.2 NNE 17 19 9 10 1019.8 1019.8 0.0
31/04:30pm 19.8 17.5 13.0 65 3.9 N 17 19 9 10 1020.1 1020.1 0.0
31/04:00pm 20.0 17.5 11.2 57 4.8 N 15 19 8 10 1020.2 1020.2 0.0
31/03:30pm 19.9 17.4 11.1 57 4.8 WNW 15 19 8 10 1020.4 1020.4 0.0
31/03:00pm 19.3 17.6 11.1 59 4.5 WNW 11 15 6 8 1020.7 1020.7 0.0
31/02:30pm 18.8 18.3 10.6 59 4.4 WNW 4 6 2 3 1021.0 1021.0 0.0
31/02:00pm 18.4 17.9 12.6 69 3.2 WNW 7 9 4 5 1021.2 1021.2 0.0
31/01:30pm 18.1 17.7 12.5 70 3.1 WNW 6 7 3 4 1021.8 1021.8 0.0
31/01:00pm 16.9 15.9 11.0 68 3.2 WNW 7 9 4 5 1022.2 1022.2 0.0
31/12:30pm 17.2 15.6 11.5 69 3.1 WNW 11 13 6 7 1022.5 1022.5 0.0
31/12:00pm 17.3 16.7 11.6 69 3.1 WNW 6 7 3 4 1022.7 1022.7 0.0
31/11:30am 16.3 15.3 10.4 68 3.1 WNW 6 7 3 4 1023.0 1023.0 0.0
31/11:00am 16.1 15.0 9.8 66 3.3 WNW 6 6 3 3 1023.4 1023.4 0.0
31/10:30am 15.4 14.4 10.4 72 2.6 WNW 6 7 3 4 1023.7 1023.7 0.0
31/10:00am 15.1 14.3 10.9 76 2.2 WNW 6 7 3 4 1023.8 1023.8 0.0
31/09:30am 14.8 14.3 10.6 76 2.2 WNW 4 6 2 3 1024.0 1024.0 0.0
31/09:00am 13.9 13.8 10.7 81 1.7 WNW 2 6 1 3 1024.0 1024.0 0.0
31/08:30am 12.5 11.5 10.4 87 1.1 WNW 6 7 3 4 1024.0 1024.0 0.0
31/08:00am 11.1 9.6 9.2 88 0.9 WNW 7 9 4 5 1023.7 1023.7 0.0
31/07:30am 11.5 10.3 8.0 79 1.7 WNW 4 6 2 3 1023.5 1023.5 0.0
31/07:00am 10.7 9.2 8.5 86 1.1 WNW 6 6 3 3 1023.2 1023.2 0.0
31/06:30am 10.5 9.1 8.9 90 0.8 WNW 6 7 3 4 1023.0 1023.0 0.0
31/06:00am 11.0 9.6 8.9 87 1.0 WNW 6 7 3 4 1022.9 1022.9 0.0
31/05:30am 11.4 10.2 8.1 80 1.6 WNW 4 6 2 3 1022.8 1022.8 0.0
31/05:00am 12.3 11.7 7.6 73 2.3 CALM 0 2 0 1 1022.7 1022.7 0.0
31/04:30am 12.5 11.2 7.6 72 2.4 WNW 4 7 2 4 1022.6 1022.6 0.0
31/04:00am 12.2 10.3 7.5 73 2.3 WNW 7 11 4 6 1022.5 1022.5 0.0
31/03:30am 12.9 11.1 7.8 71 2.5 WNW 7 13 4 7 1022.7 1022.7 0.0
31/03:00am 12.8 10.6 7.7 71 2.5 WNW 9 15 5 8 1022.7 1022.7 0.0
31/02:30am 13.7 11.5 7.9 68 2.9 WNW 9 17 5 9 1022.9 1022.9 0.0
31/02:00am 13.4 10.4 7.8 69 2.7 W 13 20 7 11 1022.9 1022.9 0.0
31/01:30am 13.8 10.5 8.2 69 2.8 WSW 15 22 8 12 1022.8 1022.8 0.0
31/01:00am 13.2 11.5 7.6 69 2.7 SW 6 9 3 5 1022.9 1022.9 0.0
31/12:30am 14.1 12.0 8.3 68 2.9 SW 9 15 5 8 1022.8 1022.8 0.0
31/12:00am 14.1 12.0 8.3 68 2.9 S 9 15 5 8 1023.0 1023.0 0.0
 
Date/Time
EDT
Temp
°C
App
Temp
°C
Dew
Point
Rel
Hum
%
Delta-T
°C
Wind Press
QNH
hPa
Press
MSL
hPa
Rain
since 9 am
mm
Dir
 
Spd
km/h
Gust
km/h
Spd
kts
Gust
kts
30/11:30pm 13.3 11.2 8.2 71 2.5 S 9 13 5 7 1023.1 1023.1 0.0
30/11:00pm 13.8 11.1 8.8 72 2.5 S 13 17 7 9 1023.0 1023.0 0.0
30/10:30pm 13.6 13.6 12.3 92 0.7 SSE 4 6 2 3 1023.0 1023.0 0.0
30/10:00pm 13.1 12.5 11.8 92 0.7 SSE 6 7 3 4 1022.9 1022.9 0.0
30/09:30pm 13.4 12.7 11.5 88 1.0 SSE 6 9 3 5 1022.7 1022.7 0.0
30/09:00pm 14.3 14.8 12.7 90 0.9 SSE 2 4 1 2 1022.4 1022.4 0.0
30/08:30pm 14.2 14.1 12.1 87 1.1 SSE 4 6 2 3 1022.0 1022.0 0.0
30/08:00pm 14.8 14.8 12.5 86 1.3 SSE 4 9 2 5 1021.5 1021.5 0.0
30/07:30pm 15.4 15.2 12.9 85 1.4 SSE 6 7 3 4 1021.0 1021.0 0.0
30/07:00pm 16.1 15.0 13.0 82 1.7 S 11 13 6 7 1020.5 1020.5 0.0

Other Formats:

Comma delimited format used in spreadsheet applications
http://www.bom.gov.au/fwo/IDT60801/IDT60801.94951.axf

JavaScript Object Notation format (JSON) in row-major order
http://www.bom.gov.au/fwo/IDT60801/IDT60801.94951.json